Time;durP1;ratioP1;P1;durP2;ratioP2;P2;SDS_P1;SDS_P2;PMS_P1;PMS_P2;Temp;Humidity;BMP_temperature;BMP_pressure;BME280_temperature;BME280_humidity;BME280_pressure;Samples;Min_cycle;Max_cycle;Signal;HPM_P1;HPM_P2
2023/06/22 00:01:23;;;;;;;;;;;;;;;;;;;;;
2023/06/22 00:04:05;;;;;;;70.70;8.20;;;24.20;1.00;;;;;;4962538;29;20549;-83
2023/06/22 00:06:38;;;;;;;71.77;8.90;;;24.20;1.00;;;;;;4963143;29;20460;-84
2023/06/22 00:09:19;;;;;;;71.27;8.80;;;24.20;1.00;;;;;;4959238;28;20494;-84
2023/06/22 00:12:07;;;;;;;72.90;10.80;;;24.20;1.00;;;;;;5043601;28;20380;-84
2023/06/22 00:15:02;;;;;;;71.97;10.97;;;24.20;1.00;;;;;;5043012;28;20386;-84
2023/06/22 00:21:31;;;;;;;71.97;11.50;;;24.20;1.00;;;;;;5027402;28;20412;-84
2023/06/22 00:28:03;;;;;;;72.27;13.07;;;24.20;1.00;;;;;;5009708;28;20457;-84
2023/06/22 00:37:47;;;;;;;72.00;10.10;;;24.10;1.00;;;;;;5034911;28;20990;-83
2023/06/22 00:40:55;;;;;;;71.83;10.07;;;24.10;1.00;;;;;;4993359;28;20849;-83
2023/06/22 00:47:00;;;;;;;73.10;11.00;;;24.10;1.00;;;;;;4992303;28;20778;-83
2023/06/22 00:49:32;;;;;;;71.03;11.20;;;24.10;1.00;;;;;;5032541;28;20435;-83
2023/06/22 00:53:10;;;;;;;72.97;10.53;;;24.10;1.00;;;;;;5035368;28;20799;-83
2023/06/22 00:58:47;;;;;;;71.87;9.83;;;24.00;1.00;;;;;;5039416;28;20470;-83
2023/06/22 01:01:42;;;;;;;;;;;;;;;;;;;;;
2023/06/22 01:04:18;;;;;;;72.33;10.80;;;23.90;1.00;;;;;;5038173;28;20464;-83
2023/06/22 01:07:45;;;;;;;71.87;10.40;;;23.90;1.00;;;;;;5034357;28;20417;-83
2023/06/22 01:10:28;;;;;;;71.77;11.37;;;23.90;1.00;;;;;;5037305;28;20431;-83
2023/06/22 01:17:19;;;;;;;72.80;11.70;;;23.80;1.00;;;;;;4987046;28;21022;-83
2023/06/22 01:20:12;;;;;;;73.03;13.40;;;23.80;1.00;;;;;;5045796;28;20427;-84
2023/06/22 01:23:12;;;;;;;71.30;11.30;;;23.70;1.00;;;;;;5044503;28;20477;-84
2023/06/22 01:26:15;;;;;;;72.83;12.97;;;23.70;1.00;;;;;;5045783;28;20401;-83
2023/06/22 01:29:33;;;;;;;71.80;13.63;;;23.70;1.00;;;;;;5044538;28;20503;-83
2023/06/22 01:32:28;;;;;;;71.30;11.87;;;23.70;1.00;;;;;;4996449;28;20918;-83
2023/06/22 01:36:09;;;;;;;;;;;;;;;;;;;;;
2023/06/22 01:38:56;;;;;;;73.80;13.40;;;23.70;1.00;;;;;;4965375;28;20457;-83
2023/06/22 01:42:06;;;;;;;74.40;12.77;;;23.70;1.00;;;;;;4987820;28;20415;-84
2023/06/22 01:45:42;;;;;;;71.93;11.80;;;23.70;1.00;;;;;;4927301;29;21044;-84
2023/06/22 01:51:18;;;;;;;72.10;14.20;;;23.60;1.00;;;;;;5029619;28;20436;-84
2023/06/22 01:54:10;;;;;;;75.27;12.90;;;23.60;1.00;;;;;;5046181;28;20408;-84
2023/06/22 01:57:10;;;;;;;75.17;16.63;;;23.50;1.00;;;;;;5045584;28;20402;-83
2023/06/22 01:59:58;;;;;;;75.17;13.00;;;23.50;1.00;;;;;;5046319;28;20393;-84
2023/06/22 02:10:01;;;;;;;72.20;13.47;;;23.50;1.00;;;;;;4991707;28;20769;-83
2023/06/22 02:13:17;;;;;;;73.90;13.60;;;23.50;1.00;;;;;;4979839;28;20790;-83
2023/06/22 02:16:33;;;;;;;74.13;15.07;;;23.50;1.00;;;;;;4979756;28;20425;-83
2023/06/22 02:19:09;;;;;;;73.40;12.30;;;23.50;1.00;;;;;;4922632;29;20561;-83
2023/06/22 02:21:53;;;;;;;73.63;13.70;;;23.50;1.00;;;;;;4938121;29;20430;-83
2023/06/22 02:25:07;;;;;;;72.83;12.03;;;23.50;1.00;;;;;;4996011;28;20469;-83
2023/06/22 02:28:15;;;;;;;;;;;;;;;;;;;;;
2023/06/22 02:37:52;;;;;;;81.47;15.20;;;23.40;1.00;;;;;;4898700;29;20437;-83
2023/06/22 02:40:41;;;;;;;;;;;;;;;;;;;;;
2023/06/22 02:47:52;;;;;;;;;;;;;;;;;;;;;
2023/06/22 02:51:19;;;;;;;;;;;;;;;;;;;;;
2023/06/22 02:54:24;;;;;;;74.70;12.67;;;23.40;1.00;;;;;;4872560;29;20519;-84
2023/06/22 03:00:30;;;;;;;73.60;15.73;;;23.30;1.70;;;;;;4965510;29;20401;-84
2023/06/22 03:04:18;;;;;;;74.07;16.30;;;23.30;3.20;;;;;;4964111;29;20458;-84
2023/06/22 03:10:54;;;;;;;84.20;13.20;;;23.20;4.30;;;;;;4919616;29;20522;-84
2023/06/22 03:13:52;;;;;;;;;;;;;;;;;;;;;
2023/06/22 03:16:40;;;;;;;72.03;10.70;;;23.10;3.40;;;;;;4943716;29;20480;-84
2023/06/22 03:19:21;;;;;;;70.90;11.70;;;23.20;1.30;;;;;;5021275;28;20416;-84
2023/06/22 03:22:14;;;;;;;74.40;11.60;;;23.20;1.00;;;;;;5020708;28;20428;-84
2023/06/22 03:25:26;;;;;;;;;;;;;;;;;;;;;
2023/06/22 03:28:15;;;;;;;76.50;11.40;;;23.10;1.00;;;;;;5019672;28;20528;-84
2023/06/22 03:30:55;;;;;;;73.10;14.97;;;23.10;1.00;;;;;;5015414;28;20416;-84
2023/06/22 03:33:29;;;;;;;72.70;12.80;;;23.10;1.00;;;;;;5038130;28;20979;-83
2023/06/22 03:36:11;;;;;;;73.50;12.73;;;23.10;1.60;;;;;;5034737;28;20404;-83
2023/06/22 03:39:09;;;;;;;72.50;13.20;;;23.00;1.70;;;;;;5036073;28;20419;-83
2023/06/22 03:42:20;;;;;;;71.47;11.57;;;23.10;2.20;;;;;;5035359;28;20412;-83
2023/06/22 03:45:19;;;;;;;72.80;11.93;;;23.00;1.10;;;;;;5033977;28;20878;-83
2023/06/22 03:47:54;;;;;;;71.37;13.13;;;23.00;1.50;;;;;;5034401;28;20432;-83
2023/06/22 03:50:23;;;;;;;71.07;10.60;;;23.00;2.60;;;;;;5035193;28;20440;-83
2023/06/22 03:52:48;;;;;;;71.50;11.00;;;23.00;2.30;;;;;;5034672;28;20408;-83
2023/06/22 03:55:14;;;;;;;71.43;13.33;;;23.00;2.80;;;;;;5033889;28;20403;-83
2023/06/22 03:57:40;;;;;;;72.73;13.20;;;23.00;4.00;;;;;;5033854;28;20545;-83
2023/06/22 04:00:06;;;;;;;72.53;12.60;;;23.00;4.90;;;;;;5033663;28;20248;-83
2023/06/22 04:02:32;;;;;;;72.07;11.80;;;23.00;5.40;;;;;;5035279;28;20299;-84
2023/06/22 04:04:57;;;;;;;72.47;15.30;;;23.00;7.00;;;;;;5033712;28;20476;-84
2023/06/22 04:07:23;;;;;;;75.33;16.43;;;23.00;9.50;;;;;;5065645;23;20301;-79
2023/06/22 04:09:49;;;;;;;71.93;15.10;;;23.00;11.10;;;;;;5056642;28;20188;-79
2023/06/22 04:12:14;;;;;;;72.07;13.30;;;23.10;8.70;;;;;;5057035;28;20187;-79
2023/06/22 04:14:40;;;;;;;74.97;15.30;;;23.10;8.30;;;;;;5056538;28;20192;-79
2023/06/22 04:17:06;;;;;;;73.10;14.40;;;23.10;9.00;;;;;;5055627;28;20196;-79
2023/06/22 04:19:32;;;;;;;74.80;15.63;;;23.10;9.70;;;;;;5057958;28;20162;-79
2023/06/22 04:21:57;;;;;;;73.70;13.13;;;23.10;10.80;;;;;;5057081;28;20199;-79
2023/06/22 04:24:23;;;;;;;71.90;12.40;;;23.10;9.70;;;;;;5057491;28;20192;-79
2023/06/22 04:26:53;;;;;;;71.97;12.63;;;23.10;10.60;;;;;;5056656;28;20212;-80
2023/06/22 04:29:19;;;;;;;73.07;13.03;;;23.10;8.20;;;;;;5057684;28;20161;-80
2023/06/22 04:31:44;;;;;;;73.67;16.93;;;23.10;10.00;;;;;;5061486;28;20417;-79
2023/06/22 04:34:10;;;;;;;73.90;13.27;;;23.10;12.80;;;;;;5060849;28;20209;-80
2023/06/22 04:36:37;;;;;;;76.87;18.57;;;23.10;9.40;;;;;;5061039;28;20168;-79
2023/06/22 04:39:09;;;;;;;74.40;18.57;;;23.10;12.00;;;;;;5061432;28;20188;-79
2023/06/22 04:41:42;;;;;;;74.70;15.90;;;23.20;13.40;;;;;;5061164;28;20414;-80
2023/06/22 04:44:09;;;;;;;75.10;18.13;;;23.20;14.00;;;;;;5059339;28;20970;-79
2023/06/22 04:46:37;;;;;;;75.50;17.30;;;23.20;14.40;;;;;;5060151;28;20446;-79
2023/06/22 04:49:09;;;;;;;76.30;18.30;;;23.20;13.60;;;;;;5058840;28;20426;-79
2023/06/22 04:51:38;;;;;;;74.27;19.80;;;23.20;16.60;;;;;;5060270;28;20380;-80
2023/06/22 04:54:05;;;;;;;75.60;19.13;;;23.10;16.70;;;;;;5058550;28;20845;-79
2023/06/22 04:56:32;;;;;;;73.17;13.87;;;23.10;17.20;;;;;;5057957;28;20443;-79
2023/06/22 04:58:57;;;;;;;72.23;14.93;;;23.10;17.80;;;;;;5059038;28;20428;-79
2023/06/22 05:01:23;;;;;;;73.93;15.10;;;23.00;20.30;;;;;;5059124;28;20743;-78
2023/06/22 05:03:49;;;;;;;74.60;14.27;;;23.10;17.90;;;;;;5057845;28;20192;-79
2023/06/22 05:06:15;;;;;;;74.13;15.83;;;23.00;17.40;;;;;;5058387;28;20422;-78
2023/06/22 05:08:41;;;;;;;72.10;13.07;;;23.10;17.50;;;;;;5058135;28;20782;-77
2023/06/22 05:11:07;;;;;;;74.80;13.90;;;23.10;15.80;;;;;;5057313;28;20411;-78
2023/06/22 05:13:33;;;;;;;72.70;12.53;;;23.10;16.70;;;;;;5058642;28;20176;-79
2023/06/22 05:16:01;;;;;;;75.30;13.77;;;23.10;15.70;;;;;;5058818;28;20222;-78
2023/06/22 05:18:31;;;;;;;75.57;14.00;;;23.20;16.20;;;;;;5056971;28;20430;-78
2023/06/22 05:20:58;;;;;;;76.67;15.00;;;23.20;15.50;;;;;;5058992;28;20913;-79
2023/06/22 05:23:24;;;;;;;74.00;15.90;;;23.20;16.20;;;;;;5057442;28;20454;-79
2023/06/22 05:25:50;;;;;;;73.30;14.87;;;23.30;16.40;;;;;;5059543;28;20423;-79
2023/06/22 05:28:16;;;;;;;79.00;16.70;;;23.30;15.00;;;;;;5057737;28;20195;-78
2023/06/22 05:30:41;;;;;;;80.53;24.90;;;23.30;14.30;;;;;;5058842;28;20403;-78
2023/06/22 05:33:07;;;;;;;73.93;14.93;;;23.40;15.10;;;;;;5057705;28;20181;-79
2023/06/22 05:35:33;;;;;;;77.17;22.37;;;23.40;15.40;;;;;;5059142;28;20176;-79
2023/06/22 05:37:58;;;;;;;77.77;19.60;;;23.50;16.60;;;;;;5058716;28;20217;-77
2023/06/22 05:40:24;;;;;;;77.20;20.40;;;23.60;21.30;;;;;;5056974;28;20173;-78
2023/06/22 05:42:50;;;;;;;77.90;27.53;;;23.50;23.20;;;;;;5058659;28;20199;-78
2023/06/22 05:45:15;;;;;;;83.80;23.70;;;23.50;25.00;;;;;;5057139;28;20213;-79
2023/06/22 05:47:41;;;;;;;76.03;20.00;;;23.50;25.30;;;;;;5056971;28;20198;-79
2023/06/22 05:50:08;;;;;;;82.77;34.47;;;23.60;24.50;;;;;;5056652;28;20170;-78
2023/06/22 05:52:34;;;;;;;82.87;33.93;;;23.40;33.40;;;;;;5059341;28;20176;-79
2023/06/22 05:55:02;;;;;;;79.93;30.97;;;23.40;31.90;;;;;;5059287;28;20418;-79
2023/06/22 05:57:27;;;;;;;75.60;18.93;;;23.70;31.60;;;;;;5058161;28;20432;-79
2023/06/22 05:59:53;;;;;;;77.13;21.70;;;23.80;27.00;;;;;;5057801;28;20416;-78
2023/06/22 06:02:19;;;;;;;84.50;37.60;;;23.90;28.30;;;;;;5057607;28;20173;-78
2023/06/22 06:04:45;;;;;;;81.37;36.00;;;23.60;31.70;;;;;;5057798;28;20791;-78
2023/06/22 06:07:11;;;;;;;83.30;39.67;;;23.50;35.70;;;;;;5059049;28;20447;-78
2023/06/22 06:09:36;;;;;;;82.97;39.17;;;23.50;38.50;;;;;;5057681;28;20647;-78
2023/06/22 06:12:03;;;;;;;81.00;31.13;;;23.40;42.30;;;;;;5059762;28;20244;-78
2023/06/22 06:14:28;;;;;;;82.40;35.60;;;23.70;34.20;;;;;;5058224;28;20215;-79
2023/06/22 06:16:54;;;;;;;84.57;36.20;;;23.80;37.40;;;;;;5056448;28;20967;-79
2023/06/22 06:19:20;;;;;;;77.80;23.37;;;23.80;35.90;;;;;;5058816;28;20249;-78
2023/06/22 06:21:46;;;;;;;79.77;29.73;;;24.00;28.10;;;;;;5056533;28;20544;-81
2023/06/22 06:24:12;;;;;;;85.37;33.27;;;24.00;32.40;;;;;;5057476;28;20193;-81
2023/06/22 06:26:38;;;;;;;81.67;33.63;;;24.10;35.60;;;;;;5058035;28;20176;-82
2023/06/22 06:29:03;;;;;;;83.43;42.53;;;24.30;35.00;;;;;;5059042;28;20401;-82
2023/06/22 06:31:29;;;;;;;83.23;25.60;;;24.40;37.70;;;;;;5057182;28;20548;-82
2023/06/22 06:33:55;;;;;;;80.97;27.57;;;24.60;30.40;;;;;;5058825;28;20620;-81
2023/06/22 06:36:21;;;;;;;76.70;19.83;;;24.70;27.80;;;;;;5058963;28;20165;-82
2023/06/22 06:38:50;;;;;;;79.07;21.47;;;24.70;23.70;;;;;;5060679;28;20444;-83
2023/06/22 06:41:16;;;;;;;76.57;17.90;;;24.80;23.80;;;;;;5062786;28;20430;-83
2023/06/22 06:43:43;;;;;;;75.27;13.47;;;25.00;22.50;;;;;;5059362;28;20818;-83
2023/06/22 06:46:09;;;;;;;75.33;13.77;;;25.00;15.50;;;;;;5059175;28;20401;-81
2023/06/22 06:48:35;;;;;;;78.20;16.53;;;25.10;14.40;;;;;;5058921;28;20418;-83
2023/06/22 06:51:01;;;;;;;76.87;17.70;;;24.80;17.70;;;;;;5057331;28;20540;-82
2023/06/22 06:53:28;;;;;;;75.50;14.07;;;24.80;22.40;;;;;;5058487;28;21038;-82
2023/06/22 06:55:54;;;;;;;75.00;12.73;;;24.90;15.90;;;;;;5058158;28;20196;-81
2023/06/22 06:58:20;;;;;;;75.07;17.43;;;25.00;14.50;;;;;;5057613;28;20476;-82
2023/06/22 07:00:45;;;;;;;76.23;18.80;;;24.90;22.80;;;;;;5058604;28;20778;-82
2023/06/22 07:03:11;;;;;;;76.13;18.40;;;24.80;22.70;;;;;;5057652;28;20203;-83
2023/06/22 07:05:37;;;;;;;79.30;18.77;;;24.60;24.80;;;;;;5057100;28;20188;-82
2023/06/22 07:08:03;;;;;;;77.27;18.23;;;24.80;23.90;;;;;;5058204;28;20196;-82
2023/06/22 07:10:32;;;;;;;78.37;23.70;;;24.90;23.70;;;;;;5058657;28;20168;-83
2023/06/22 07:13:01;;;;;;;75.80;18.03;;;25.10;27.00;;;;;;5058813;28;20271;-83
2023/06/22 07:15:27;;;;;;;76.90;20.57;;;25.20;20.60;;;;;;5057721;28;20446;-82
2023/06/22 07:17:53;;;;;;;75.30;14.60;;;25.30;21.20;;;;;;5058541;28;20427;-82
2023/06/22 07:20:19;;;;;;;75.40;14.93;;;25.10;19.20;;;;;;5058761;28;20433;-82
2023/06/22 07:22:45;;;;;;;74.10;13.70;;;25.20;17.80;;;;;;5058218;28;20177;-82
2023/06/22 07:25:14;;;;;;;74.83;17.80;;;25.40;14.50;;;;;;5056930;28;20490;-82
2023/06/22 07:27:44;;;;;;;75.77;15.50;;;25.40;17.70;;;;;;5058381;28;20435;-81
2023/06/22 07:30:11;;;;;;;75.03;14.30;;;25.30;15.10;;;;;;5058048;28;20454;-82
2023/06/22 07:32:37;;;;;;;78.53;12.37;;;25.30;16.00;;;;;;5056275;28;20922;-82
2023/06/22 07:35:04;;;;;;;74.63;12.40;;;25.40;9.80;;;;;;5057865;28;20464;-82
2023/06/22 07:37:30;;;;;;;73.57;12.43;;;25.30;8.20;;;;;;5056591;28;20272;-82
2023/06/22 07:39:59;;;;;;;77.60;15.77;;;25.20;12.90;;;;;;5057313;28;20415;-82
2023/06/22 07:42:25;;;;;;;75.40;13.43;;;25.40;13.20;;;;;;5057745;28;20400;-83
2023/06/22 07:44:51;;;;;;;75.77;16.20;;;25.40;11.90;;;;;;5058381;28;20458;-82
2023/06/22 07:47:20;;;;;;;76.60;14.50;;;25.40;16.40;;;;;;5056854;28;20426;-82
2023/06/22 07:49:47;;;;;;;73.90;14.87;;;25.50;11.70;;;;;;5058387;28;20169;-82
2023/06/22 07:52:12;;;;;;;74.47;14.00;;;25.60;11.80;;;;;;5058577;28;20406;-83
2023/06/22 07:54:38;;;;;;;75.57;13.67;;;25.50;10.80;;;;;;5059708;28;20403;-82
2023/06/22 07:57:04;;;;;;;74.30;13.63;;;25.60;7.40;;;;;;5058343;28;20254;-83
2023/06/22 07:59:30;;;;;;;75.37;13.40;;;25.50;7.30;;;;;;5057115;28;20597;-81
2023/06/22 08:01:56;;;;;;;75.47;13.73;;;25.60;5.60;;;;;;5058570;28;20493;-81
2023/06/22 08:04:21;;;;;;;74.60;15.30;;;25.60;2.40;;;;;;5057789;28;20555;-82
2023/06/22 08:06:47;;;;;;;77.20;15.70;;;25.70;2.60;;;;;;5056625;28;20188;-83
2023/06/22 08:09:13;;;;;;;77.27;15.33;;;25.70;5.00;;;;;;5055509;28;20165;-82
2023/06/22 08:11:38;;;;;;;77.23;18.93;;;25.60;1.00;;;;;;5057372;28;20579;-82
2023/06/22 08:14:04;;;;;;;75.07;16.17;;;25.60;1.00;;;;;;5056599;28;20180;-82
2023/06/22 08:16:29;;;;;;;78.50;14.43;;;25.60;5.70;;;;;;5058162;28;20172;-82
2023/06/22 08:18:56;;;;;;;76.30;17.53;;;25.60;4.20;;;;;;5057049;28;20564;-82
2023/06/22 08:21:22;;;;;;;76.87;14.53;;;25.70;2.70;;;;;;5055825;28;20172;-81
2023/06/22 08:23:50;;;;;;;77.93;15.23;;;25.80;2.60;;;;;;5057327;28;20451;-82
2023/06/22 08:26:16;;;;;;;75.30;17.13;;;25.90;1.00;;;;;;5056873;28;20180;-82
2023/06/22 08:28:41;;;;;;;75.60;13.13;;;25.90;1.00;;;;;;5055571;28;20799;-82
2023/06/22 08:31:08;;;;;;;77.30;15.00;;;25.80;1.00;;;;;;5056926;28;20173;-81
2023/06/22 08:33:34;;;;;;;74.63;13.83;;;25.70;1.00;;;;;;5056211;28;20223;-83
2023/06/22 08:36:00;;;;;;;79.10;16.43;;;25.80;1.00;;;;;;5057550;28;20415;-82
2023/06/22 08:38:26;;;;;;;74.60;12.90;;;26.00;1.00;;;;;;5055664;28;20686;-81
2023/06/22 08:40:55;;;;;;;75.03;14.10;;;26.10;1.00;;;;;;5057650;28;20404;-82
2023/06/22 08:43:20;;;;;;;73.23;13.20;;;26.30;1.00;;;;;;5055649;28;20465;-81
2023/06/22 08:45:46;;;;;;;74.50;14.30;;;26.50;1.00;;;;;;5057005;28;20395;-81
2023/06/22 08:48:12;;;;;;;75.40;13.97;;;26.60;1.00;;;;;;5056677;28;20176;-82
2023/06/22 08:50:37;;;;;;;75.30;11.50;;;26.60;1.00;;;;;;5056916;28;20244;-80
2023/06/22 08:53:03;;;;;;;75.57;16.83;;;26.80;1.00;;;;;;5055426;28;20169;-81
2023/06/22 08:55:29;;;;;;;73.80;14.33;;;26.70;1.00;;;;;;5056858;28;20169;-82
2023/06/22 08:57:54;;;;;;;76.90;15.57;;;26.50;1.00;;;;;;5055129;28;20199;-81
2023/06/22 09:00:20;;;;;;;73.93;14.23;;;26.40;1.00;;;;;;5057432;28;20628;-81
2023/06/22 09:02:47;;;;;;;75.60;16.37;;;26.40;1.00;;;;;;5056954;28;20165;-82
2023/06/22 09:05:13;;;;;;;75.70;13.33;;;26.40;1.00;;;;;;5055597;28;20172;-82
2023/06/22 09:07:39;;;;;;;74.20;15.20;;;26.50;1.00;;;;;;5056500;28;20499;-81
2023/06/22 09:10:08;;;;;;;77.70;17.73;;;26.60;1.00;;;;;;5056428;28;20438;-82
2023/06/22 09:12:36;;;;;;;75.00;16.77;;;26.70;1.00;;;;;;5057060;28;20161;-82
2023/06/22 09:15:03;;;;;;;74.70;13.63;;;26.80;1.00;;;;;;5055879;28;20422;-82
2023/06/22 09:17:29;;;;;;;73.53;12.10;;;26.80;1.00;;;;;;5058955;28;20423;-82
2023/06/22 09:19:55;;;;;;;75.53;11.87;;;27.00;1.00;;;;;;5058971;28;20410;-81
2023/06/22 09:22:20;;;;;;;76.70;14.20;;;26.80;1.00;;;;;;5060185;28;20526;-81
2023/06/22 09:24:49;;;;;;;77.63;12.37;;;26.90;1.00;;;;;;5060210;28;20185;-82
2023/06/22 09:27:14;;;;;;;73.90;13.00;;;27.00;1.00;;;;;;5058053;28;20185;-82
2023/06/22 09:29:40;;;;;;;74.00;12.37;;;26.90;1.00;;;;;;5059445;28;20407;-82
2023/06/22 09:32:06;;;;;;;73.07;11.37;;;26.70;1.00;;;;;;5058463;28;20176;-82
2023/06/22 09:34:32;;;;;;;74.00;12.20;;;26.80;1.00;;;;;;5060042;28;20165;-81
2023/06/22 09:37:00;;;;;;;74.23;10.80;;;27.20;1.00;;;;;;5059590;28;20450;-81
2023/06/22 09:39:26;;;;;;;74.53;12.50;;;27.50;1.00;;;;;;5060289;28;20188;-82
2023/06/22 09:41:51;;;;;;;76.47;13.17;;;27.60;1.00;;;;;;5060096;28;20399;-81
2023/06/22 09:44:17;;;;;;;74.87;13.00;;;27.90;1.00;;;;;;5058404;28;20680;-81
2023/06/22 09:46:42;;;;;;;75.00;12.17;;;27.70;1.00;;;;;;5058055;28;20660;-81
2023/06/22 09:49:08;;;;;;;75.37;12.10;;;27.80;1.00;;;;;;5059903;28;20755;-81
2023/06/22 09:51:34;;;;;;;74.13;11.73;;;28.10;1.00;;;;;;5057147;28;20248;-82
2023/06/22 09:53:59;;;;;;;75.33;11.40;;;28.10;1.00;;;;;;5056435;28;20227;-81
2023/06/22 09:56:28;;;;;;;73.83;11.40;;;28.20;1.00;;;;;;5056856;28;20164;-80
2023/06/22 09:58:54;;;;;;;73.63;11.93;;;28.10;1.00;;;;;;5056871;28;20188;-81
2023/06/22 10:01:20;;;;;;;78.03;12.47;;;27.80;1.00;;;;;;5058701;28;20457;-81
2023/06/22 10:03:46;;;;;;;75.00;12.70;;;27.70;1.00;;;;;;5058433;28;20189;-81
2023/06/22 10:06:12;;;;;;;74.07;11.00;;;27.50;1.00;;;;;;5082657;23;21192;-82
2023/06/22 10:08:39;;;;;;;73.40;12.40;;;27.40;1.00;;;;;;5084222;28;20245;-82
2023/06/22 10:11:05;;;;;;;76.37;11.43;;;27.20;1.00;;;;;;5083874;28;20603;-82
2023/06/22 10:13:30;;;;;;;73.30;10.07;;;27.10;1.00;;;;;;5083217;28;20477;-82
2023/06/22 10:15:56;;;;;;;72.33;11.17;;;27.10;1.00;;;;;;5082696;28;20480;-82
2023/06/22 10:18:22;;;;;;;73.43;11.60;;;27.00;1.00;;;;;;5081897;28;20191;-82
2023/06/22 10:20:51;;;;;;;94.63;55.33;;;26.90;1.00;;;;;;5083771;28;20203;-82
2023/06/22 10:23:17;;;;;;;92.37;55.10;;;26.70;19.70;;;;;;5083009;28;20646;-82
2023/06/22 10:25:42;;;;;;;95.67;72.80;;;26.50;22.80;;;;;;5083773;28;20406;-81
2023/06/22 10:28:08;;;;;;;91.97;67.47;;;26.50;42.00;;;;;;5080822;28;20464;-81
2023/06/22 10:30:34;;;;;;;91.40;62.30;;;26.40;55.50;;;;;;5062648;28;20202;-83
2023/06/22 10:32:59;;;;;;;92.57;60.33;;;26.30;67.60;;;;;;5081020;28;20170;-83
2023/06/22 10:35:25;;;;;;;82.30;40.17;;;26.20;76.10;;;;;;5081405;28;20187;-83
2023/06/22 10:37:51;;;;;;;82.87;34.20;;;26.10;83.70;;;;;;5081018;28;20188;-83
2023/06/22 10:40:18;;;;;;;88.07;55.20;;;26.00;97.90;;;;;;5080328;28;20218;-84
2023/06/22 10:42:44;;;;;;;98.60;66.73;;;25.90;99.90;;;;;;5062970;28;20196;-83
2023/06/22 10:45:11;;;;;;;93.37;67.90;;;25.80;99.90;;;;;;5079590;28;20411;-83
2023/06/22 10:47:36;;;;;;;95.50;73.63;;;25.70;99.90;;;;;;5079809;28;20836;-83
2023/06/22 10:50:03;;;;;;;97.10;75.07;;;25.60;99.90;;;;;;5079784;28;20402;-84
2023/06/22 10:52:29;;;;;;;94.47;71.13;;;25.50;99.90;;;;;;5081030;28;20794;-83
2023/06/22 10:54:54;;;;;;;96.83;73.40;;;25.40;99.90;;;;;;5062419;28;20417;-83
2023/06/22 10:57:21;;;;;;;98.53;71.97;;;25.40;99.90;;;;;;5252196;22;20307;-82
2023/06/22 10:59:47;;;;;;;98.13;80.03;;;25.30;99.90;;;;;;5155553;23;20689;-83
2023/06/22 11:02:13;;;;;;;103.90;83.70;;;25.10;99.90;;;;;;5076007;28;20399;-83
2023/06/22 11:04:39;;;;;;;105.80;94.40;;;25.00;99.90;;;;;;5057949;28;20455;-82
2023/06/22 11:07:05;;;;;;;107.43;93.07;;;24.80;99.90;;;;;;5057587;28;20191;-81
2023/06/22 11:09:31;;;;;;;101.07;86.30;;;24.70;99.90;;;;;;5075357;28;20167;-82
2023/06/22 11:11:58;;;;;;;106.77;95.20;;;24.60;99.90;;;;;;5075047;28;20488;-82
2023/06/22 11:14:33;;;;;;;129.10;116.50;;;24.60;99.90;;;;;;5074600;28;20417;-82
2023/06/22 11:17:24;;;;;;;129.03;116.33;;;24.40;99.90;;;;;;5074802;28;20413;-82
2023/06/22 11:19:50;;;;;;;115.13;102.63;;;24.40;99.90;;;;;;5074906;28;20385;-82
2023/06/22 11:22:16;;;;;;;113.47;100.57;;;24.60;99.90;;;;;;5074390;28;20594;-81
2023/06/22 11:24:53;;;;;;;104.03;90.97;;;24.70;99.90;;;;;;5074689;28;20472;-82
2023/06/22 11:27:19;;;;;;;103.80;91.33;;;24.90;99.90;;;;;;5056716;28;20229;-82
2023/06/22 11:29:45;;;;;;;104.53;92.30;;;24.90;99.90;;;;;;5074469;28;20440;-82
2023/06/22 11:32:10;;;;;;;106.30;90.67;;;25.00;99.90;;;;;;5056600;28;20285;-82
2023/06/22 11:34:36;;;;;;;115.10;102.97;;;25.00;99.90;;;;;;5074792;28;20642;-82
2023/06/22 11:37:02;;;;;;;115.80;102.67;;;24.90;99.90;;;;;;5074370;28;20187;-82
2023/06/22 11:39:28;;;;;;;121.83;109.13;;;25.00;99.90;;;;;;5073933;28;20168;-82
2023/06/22 11:41:53;;;;;;;128.53;115.23;;;25.00;99.90;;;;;;5074603;28;20409;-83
2023/06/22 11:44:19;;;;;;;126.60;105.23;;;24.80;99.90;;;;;;5074295;28;20673;-82
2023/06/22 11:46:45;;;;;;;116.03;102.57;;;24.80;99.90;;;;;;5056640;28;20198;-82
2023/06/22 11:49:10;;;;;;;122.03;109.13;;;24.80;99.90;;;;;;5074540;28;20697;-82
2023/06/22 11:51:39;;;;;;;107.83;86.83;;;24.90;99.90;;;;;;5074524;28;20171;-83
2023/06/22 11:54:07;;;;;;;132.70;119.30;;;25.10;99.90;;;;;;5057137;28;20267;-83
2023/06/22 11:56:33;;;;;;;144.53;130.83;;;25.30;99.90;;;;;;5074838;28;20467;-83
2023/06/22 11:58:59;;;;;;;161.57;147.03;;;25.60;99.90;;;;;;5075899;28;20444;-83
2023/06/22 12:01:24;;;;;;;168.80;154.43;;;25.90;99.90;;;;;;5076581;28;20640;-84
2023/06/22 12:03:50;;;;;;;150.37;136.23;;;25.90;99.90;;;;;;5075679;28;20264;-83
2023/06/22 12:06:17;;;;;;;152.70;139.10;;;26.00;99.90;;;;;;5057564;28;20314;-84
2023/06/22 12:08:42;;;;;;;134.87;121.90;;;26.40;99.90;;;;;;5057220;28;20509;-84
2023/06/22 12:11:08;;;;;;;97.50;76.43;;;26.60;99.90;;;;;;5075116;28;20406;-84
2023/06/22 12:13:39;;;;;;;104.27;91.63;;;26.30;99.90;;;;;;5075293;28;20532;-83
2023/06/22 12:16:05;;;;;;;105.80;94.23;;;26.30;99.90;;;;;;5056952;28;20198;-83
2023/06/22 12:18:32;;;;;;;104.90;81.43;;;26.50;99.90;;;;;;5074496;28;20448;-83
2023/06/22 12:20:58;;;;;;;113.17;101.37;;;26.40;99.90;;;;;;5075892;28;20592;-84
2023/06/22 12:23:23;;;;;;;105.43;92.10;;;26.40;99.90;;;;;;5076040;28;20473;-84
2023/06/22 12:25:49;;;;;;;117.37;105.23;;;26.40;99.90;;;;;;5076017;28;20685;-84
2023/06/22 12:28:14;;;;;;;121.50;109.10;;;26.30;99.90;;;;;;5075391;28;20600;-84
2023/06/22 12:30:40;;;;;;;104.97;84.57;;;26.40;99.90;;;;;;5075758;28;20207;-83
2023/06/22 12:33:06;;;;;;;125.83;113.20;;;26.60;99.90;;;;;;5074978;28;20163;-83
2023/06/22 12:35:31;;;;;;;106.73;92.20;;;26.80;99.90;;;;;;5075040;28;20192;-84
2023/06/22 12:37:57;;;;;;;109.77;98.10;;;27.00;99.90;;;;;;5074911;28;20184;-83
2023/06/22 12:40:23;;;;;;;103.20;85.17;;;27.40;99.90;;;;;;5075319;28;20168;-83
2023/06/22 12:43:15;;;;;;;100.47;70.60;;;27.40;99.90;;;;;;5075852;28;20172;-84
2023/06/22 12:45:40;;;;;;;95.40;54.37;;;27.40;99.90;;;;;;5074497;28;20169;-83
2023/06/22 12:48:09;;;;;;;93.00;53.50;;;27.40;99.90;;;;;;5075444;28;20433;-83
2023/06/22 12:50:35;;;;;;;95.73;61.20;;;27.10;99.90;;;;;;5078885;28;20169;-83
2023/06/22 12:53:02;;;;;;;107.97;82.63;;;26.80;99.90;;;;;;5080139;28;20893;-81
2023/06/22 12:55:28;;;;;;;92.73;57.53;;;26.80;99.90;;;;;;5061921;28;20172;-82
2023/06/22 12:58:45;;;;;;;;;;;;;;;;;;;;;
2023/06/22 13:01:11;;;;;;;87.83;46.80;;;27.00;99.90;;;;;;5047785;28;20668;-83
2023/06/22 13:03:49;;;;;;;81.70;23.00;;;27.10;99.90;;;;;;5080230;28;20493;-81
2023/06/22 13:06:35;;;;;;;80.37;23.00;;;27.30;96.50;;;;;;5080100;28;20500;-81
2023/06/22 13:09:08;;;;;;;78.97;23.87;;;27.60;91.60;;;;;;5079369;28;20432;-81
2023/06/22 13:11:34;;;;;;;77.47;19.50;;;28.00;88.40;;;;;;5079839;28;20402;-82
2023/06/22 13:14:00;;;;;;;79.87;24.73;;;28.10;69.90;;;;;;5079753;28;20413;-81
2023/06/22 13:16:25;;;;;;;78.93;23.53;;;28.00;89.90;;;;;;5080037;28;20183;-81
2023/06/22 13:18:51;;;;;;;81.67;22.37;;;27.80;77.80;;;;;;5061680;28;20245;-81
2023/06/22 13:21:19;;;;;;;79.00;20.77;;;27.90;88.60;;;;;;5080088;28;20627;-81
2023/06/22 13:23:45;;;;;;;76.20;19.93;;;28.10;77.80;;;;;;5079651;28;20187;-81
2023/06/22 13:26:11;;;;;;;77.10;18.00;;;28.40;80.30;;;;;;5079301;28;20410;-81
2023/06/22 13:28:36;;;;;;;78.13;16.90;;;28.20;66.10;;;;;;5079372;28;20188;-82
2023/06/22 13:31:02;;;;;;;77.77;19.77;;;28.30;62.90;;;;;;5079921;28;20190;-81
2023/06/22 13:33:28;;;;;;;76.70;18.37;;;28.40;48.40;;;;;;5079411;28;20711;-81
2023/06/22 13:35:53;;;;;;;77.43;21.73;;;28.60;53.00;;;;;;5079299;28;20581;-81
2023/06/22 13:38:19;;;;;;;77.03;21.50;;;28.80;43.10;;;;;;5079016;28;20184;-82
2023/06/22 13:40:45;;;;;;;77.53;21.83;;;28.80;29.90;;;;;;5079645;28;20167;-81
2023/06/22 13:43:11;;;;;;;79.70;23.50;;;28.70;39.40;;;;;;5061569;28;20196;-81
2023/06/22 13:45:36;;;;;;;80.00;26.97;;;28.80;39.30;;;;;;5079424;28;20242;-81
2023/06/22 13:48:02;;;;;;;78.40;25.50;;;29.00;24.60;;;;;;5079985;28;20180;-82
2023/06/22 13:50:29;;;;;;;80.80;32.97;;;28.70;25.80;;;;;;5079772;28;20229;-82
2023/06/22 13:52:55;;;;;;;80.37;31.27;;;28.40;27.30;;;;;;5079530;28;20152;-82
2023/06/22 13:55:23;;;;;;;81.87;29.60;;;28.50;36.50;;;;;;5078863;28;20403;-82
2023/06/22 13:57:48;;;;;;;77.13;24.23;;;28.70;32.30;;;;;;5079227;28;20212;-82
2023/06/22 14:00:15;;;;;;;79.73;24.63;;;28.80;24.60;;;;;;5079582;28;20402;-82